sensor_id;sensor_type;location;lat;lon;timestamp;pressure;altitude;pressure_sealevel;temperature;humidity
13476;BME280;6810;63.824;20.288;2023-11-21T09:03:38;103015.75;;;-7.72;74.14
13476;BME280;6810;63.824;20.288;2023-11-21T09:06:05;103011.31;;;-7.74;74.26
13476;BME280;6810;63.824;20.288;2023-11-21T09:08:32;103022.44;;;-7.77;74.61
13476;BME280;6810;63.824;20.288;2023-11-21T09:11:00;103022.44;;;-7.77;74.40
13476;BME280;6810;63.824;20.288;2023-11-21T09:13:27;103028.38;;;-7.78;74.50
13476;BME280;6810;63.824;20.288;2023-11-21T09:15:54;102998.25;;;-7.93;74.56
13476;BME280;6810;63.824;20.288;2023-11-21T09:18:41;103014.09;;;-7.87;74.58
13476;BME280;6810;63.824;20.288;2023-11-21T09:21:28;103029.19;;;-7.79;74.53
13476;BME280;6810;63.824;20.288;2023-11-21T09:24:16;103030.09;;;-7.78;74.71
13476;BME280;6810;63.824;20.288;2023-11-21T09:27:04;103029.19;;;-7.79;74.62
13476;BME280;6810;63.824;20.288;2023-11-21T09:29:51;103035.28;;;-7.78;74.58
13476;BME280;6810;63.824;20.288;2023-11-21T09:32:38;103031.78;;;-7.79;74.32
13476;BME280;6810;63.824;20.288;2023-11-21T09:35:26;103031.78;;;-7.79;74.55
13476;BME280;6810;63.824;20.288;2023-11-21T09:38:12;103021.94;;;-7.86;74.47
13476;BME280;6810;63.824;20.288;2023-11-21T09:41:00;103023.88;;;-7.82;74.62
13476;BME280;6810;63.824;20.288;2023-11-21T09:43:49;102992.84;;;-7.98;74.46
13476;BME280;6810;63.824;20.288;2023-11-21T09:46:42;103026.06;;;-7.89;74.29
13476;BME280;6810;63.824;20.288;2023-11-21T09:49:31;103033.41;;;-7.81;74.67
13476;BME280;6810;63.824;20.288;2023-11-21T09:52:25;103032.53;;;-7.81;74.61
13476;BME280;6810;63.824;20.288;2023-11-21T09:55:12;103027.19;;;-7.84;74.29
13476;BME280;6810;63.824;20.288;2023-11-21T09:58:00;103001.56;;;-7.96;74.22
13476;BME280;6810;63.824;20.288;2023-11-21T10:00:49;102951.59;;;-8.28;74.98
13476;BME280;6810;63.824;20.288;2023-11-21T10:03:40;103019.50;;;-7.83;74.73
13476;BME280;6810;63.824;20.288;2023-11-21T10:06:28;103022.97;;;-7.82;73.90
13476;BME280;6810;63.824;20.288;2023-11-21T10:09:15;103019.50;;;-7.83;74.60
13476;BME280;6810;63.824;20.288;2023-11-21T10:12:05;102999.94;;;-7.94;74.35
13476;BME280;6810;63.824;20.288;2023-11-21T10:14:54;103024.69;;;-7.83;74.46
13476;BME280;6810;63.824;20.288;2023-11-21T10:17:41;103024.69;;;-7.83;74.52
13476;BME280;6810;63.824;20.288;2023-11-21T10:20:32;102995.44;;;-7.98;74.36
13476;BME280;6810;63.824;20.288;2023-11-21T10:23:23;103029.88;;;-7.83;74.77
13476;BME280;6810;63.824;20.288;2023-11-21T10:26:12;102972.47;;;-8.08;74.35
13476;BME280;6810;63.824;20.288;2023-11-21T10:29:13;103021.28;;;-7.82;74.50
13476;BME280;6810;63.824;20.288;2023-11-21T10:32:04;103021.28;;;-7.82;74.55
13476;BME280;6810;63.824;20.288;2023-11-21T10:34:57;103014.34;;;-7.83;74.45
13476;BME280;6810;63.824;20.288;2023-11-21T10:37:59;103015.28;;;-7.81;74.06
13476;BME280;6810;63.824;20.288;2023-11-21T10:40:47;103009.25;;;-7.81;74.26
13476;BME280;6810;63.824;20.288;2023-11-21T10:43:34;102978.44;;;-7.93;74.51
13476;BME280;6810;63.824;20.288;2023-11-21T10:46:21;102991.59;;;-7.88;74.74
13476;BME280;6810;63.824;20.288;2023-11-21T10:49:10;103011.91;;;-7.80;74.42
13476;BME280;6810;63.824;20.288;2023-11-21T10:51:57;103010.28;;;-7.78;74.21
13476;BME280;6810;63.824;20.288;2023-11-21T10:54:45;103011.16;;;-7.77;74.53
13476;BME280;6810;63.824;20.288;2023-11-21T10:57:32;103013.84;;;-7.76;74.41
13476;BME280;6810;63.824;20.288;2023-11-21T11:00:20;103005.19;;;-7.76;74.44
13476;BME280;6810;63.824;20.288;2023-11-21T11:03:10;102999.22;;;-7.75;74.59
13476;BME280;6810;63.824;20.288;2023-11-21T11:05:59;103014.81;;;-7.74;74.41
13476;BME280;6810;63.824;20.288;2023-11-21T11:08:47;103014.91;;;-7.72;74.22
13476;BME280;6810;63.824;20.288;2023-11-21T11:11:36;103006.31;;;-7.71;74.17
13476;BME280;6810;63.824;20.288;2023-11-21T11:14:23;103004.63;;;-7.71;74.13
13476;BME280;6810;63.824;20.288;2023-11-21T11:17:11;103012.38;;;-7.71;74.40
13476;BME280;6810;63.824;20.288;2023-11-21T11:19:58;103018.53;;;-7.69;74.33
13476;BME280;6810;63.824;20.288;2023-11-21T11:32:16;103019.50;;;-7.67;74.45
13476;BME280;6810;63.824;20.288;2023-11-21T11:35:18;103012.69;;;-7.65;74.52
13476;BME280;6810;63.824;20.288;2023-11-21T11:38:07;103015.97;;;-7.69;74.40
13476;BME280;6810;63.824;20.288;2023-11-21T11:40:54;102982.22;;;-7.86;74.47
13476;BME280;6810;63.824;20.288;2023-11-21T11:43:41;103015.13;;;-7.68;74.38
13476;BME280;6810;63.824;20.288;2023-11-21T11:46:42;103021.44;;;-7.63;74.44
13476;BME280;6810;63.824;20.288;2023-11-21T11:49:32;103029.22;;;-7.63;74.04
13476;BME280;6810;63.824;20.288;2023-11-21T11:52:35;103023.22;;;-7.62;74.27
13476;BME280;6810;63.824;20.288;2023-11-21T11:55:24;103033.56;;;-7.62;74.32
13476;BME280;6810;63.824;20.288;2023-11-21T11:58:11;103030.16;;;-7.61;74.32
13476;BME280;6810;63.824;20.288;2023-11-21T12:00:58;103030.16;;;-7.61;74.13
13476;BME280;6810;63.824;20.288;2023-11-21T12:07:00;103028.47;;;-7.60;74.34
13476;BME280;6810;63.824;20.288;2023-11-21T12:09:48;102997.19;;;-7.81;74.11
13476;BME280;6810;63.824;20.288;2023-11-21T12:12:35;103030.75;;;-7.66;74.21
13476;BME280;6810;63.824;20.288;2023-11-21T12:15:22;102957.91;;;-8.06;73.91
13476;BME280;6810;63.824;20.288;2023-11-21T12:18:09;102948.13;;;-8.11;73.87
13476;BME280;6810;63.824;20.288;2023-11-21T12:20:56;103038.75;;;-7.62;74.20
13476;BME280;6810;63.824;20.288;2023-11-21T12:23:43;103043.09;;;-7.61;74.07
13476;BME280;6810;63.824;20.288;2023-11-21T12:26:30;103020.84;;;-7.73;74.16
13476;BME280;6810;63.824;20.288;2023-11-21T12:29:17;103001.41;;;-7.83;74.36
13476;BME280;6810;63.824;20.288;2023-11-21T12:32:05;103014.91;;;-7.72;74.22
13476;BME280;6810;63.824;20.288;2023-11-21T12:34:52;103017.56;;;-7.71;74.11
13476;BME280;6810;63.824;20.288;2023-11-21T12:37:41;103036.16;;;-7.62;74.27
13476;BME280;6810;63.824;20.288;2023-11-21T12:40:28;103037.84;;;-7.62;74.34
13476;BME280;6810;63.824;20.288;2023-11-21T12:43:17;103036.06;;;-7.63;74.19
13476;BME280;6810;63.824;20.288;2023-11-21T12:46:08;103033.50;;;-7.63;74.22
13476;BME280;6810;63.824;20.288;2023-11-21T12:48:58;103036.81;;;-7.66;74.10
13476;BME280;6810;63.824;20.288;2023-11-21T12:51:46;103023.88;;;-7.66;73.93
13476;BME280;6810;63.824;20.288;2023-11-21T12:54:33;103027.25;;;-7.67;74.17
13476;BME280;6810;63.824;20.288;2023-11-21T12:57:20;103022.06;;;-7.67;73.62
13476;BME280;6810;63.824;20.288;2023-11-21T13:00:08;103022.75;;;-7.71;73.80
13476;BME280;6810;63.824;20.288;2023-11-21T13:02:56;103024.50;;;-7.70;74.19
13476;BME280;6810;63.824;20.288;2023-11-21T13:05:47;103027.91;;;-7.71;73.82
13476;BME280;6810;63.824;20.288;2023-11-21T13:08:37;103006.75;;;-7.80;74.07
13476;BME280;6810;63.824;20.288;2023-11-21T13:11:25;103003.16;;;-7.82;74.14
13476;BME280;6810;63.824;20.288;2023-11-21T13:14:11;103019.91;;;-7.75;74.09
13476;BME280;6810;63.824;20.288;2023-11-21T13:16:59;103018.03;;;-7.78;74.12
13476;BME280;6810;63.824;20.288;2023-11-21T13:19:46;103025.78;;;-7.78;74.48
13476;BME280;6810;63.824;20.288;2023-11-21T13:22:33;103020.53;;;-7.79;74.18
13476;BME280;6810;63.824;20.288;2023-11-21T13:25:23;103023.94;;;-7.80;73.92
13476;BME280;6810;63.824;20.288;2023-11-21T13:28:13;103014.03;;;-7.89;73.77
13476;BME280;6810;63.824;20.288;2023-11-21T13:31:01;102981.75;;;-8.11;73.90
13476;BME280;6810;63.824;20.288;2023-11-21T13:33:52;103033.16;;;-7.85;74.12
13476;BME280;6810;63.824;20.288;2023-11-21T13:36:46;103027.91;;;-7.87;74.13
13476;BME280;6810;63.824;20.288;2023-11-21T13:39:34;103036.41;;;-7.89;74.09
13476;BME280;6810;63.824;20.288;2023-11-21T13:42:21;103039.72;;;-7.92;74.27
13476;BME280;6810;63.824;20.288;2023-11-21T13:45:08;103020.06;;;-8.04;74.05
13476;BME280;6810;63.824;20.288;2023-11-21T13:47:55;103049.91;;;-7.95;73.40
13476;BME280;6810;63.824;20.288;2023-11-21T13:50:46;103043.75;;;-7.97;73.81
13476;BME280;6810;63.824;20.288;2023-11-21T13:53:43;103041.91;;;-7.99;74.20
13476;BME280;6810;63.824;20.288;2023-11-21T13:56:30;103026.69;;;-8.09;74.05
13476;BME280;6810;63.824;20.288;2023-11-21T13:59:17;103028.28;;;-8.11;73.84
13476;BME280;6810;63.824;20.288;2023-11-21T14:02:10;103050.94;;;-8.07;74.16
13476;BME280;6810;63.824;20.288;2023-11-21T14:05:00;103049.88;;;-8.11;74.22
13476;BME280;6810;63.824;20.288;2023-11-21T14:07:47;103054.91;;;-8.14;73.99
13476;BME280;6810;63.824;20.288;2023-11-21T14:10:34;103046.16;;;-8.16;74.02
13476;BME280;6810;63.824;20.288;2023-11-21T14:13:23;103042.53;;;-8.19;74.28
13476;BME280;6810;63.824;20.288;2023-11-21T14:16:10;103057.03;;;-8.23;73.82
13476;BME280;6810;63.824;20.288;2023-11-21T14:18:57;103060.34;;;-8.25;74.25
13476;BME280;6810;63.824;20.288;2023-11-21T14:21:48;103008.41;;;-8.60;74.02
13476;BME280;6810;63.824;20.288;2023-11-21T14:24:38;103047.00;;;-8.33;73.97
13476;BME280;6810;63.824;20.288;2023-11-21T14:27:25;103051.97;;;-8.36;73.89
13476;BME280;6810;63.824;20.288;2023-11-21T14:30:12;103030.09;;;-8.57;73.55
13476;BME280;6810;63.824;20.288;2023-11-21T14:32:59;103013.03;;;-8.69;73.87
13476;BME280;6810;63.824;20.288;2023-11-21T14:35:46;103057.44;;;-8.46;73.92
13476;BME280;6810;63.824;20.288;2023-11-21T14:38:33;103052.09;;;-8.49;73.85
13476;BME280;6810;63.824;20.288;2023-11-21T14:41:20;103050.25;;;-8.51;73.97
13476;BME280;6810;63.824;20.288;2023-11-21T14:44:08;103049.19;;;-8.55;73.57
13476;BME280;6810;63.824;20.288;2023-11-21T14:46:54;103044.75;;;-8.57;73.92
13476;BME280;6810;63.824;20.288;2023-11-21T14:49:43;102981.72;;;-8.90;74.07
13476;BME280;6810;63.824;20.288;2023-11-21T14:52:41;103033.16;;;-8.64;73.60
13476;BME280;6810;63.824;20.288;2023-11-21T14:55:28;103039.06;;;-8.66;73.87
13476;BME280;6810;63.824;20.288;2023-11-21T14:58:19;103048.34;;;-8.70;73.53
13476;BME280;6810;63.824;20.288;2023-11-21T15:01:15;103038.59;;;-8.74;73.59
13476;BME280;6810;63.824;20.288;2023-11-21T15:04:02;103044.50;;;-8.76;74.28
13476;BME280;6810;63.824;20.288;2023-11-21T15:06:49;103019.31;;;-8.95;73.75
13476;BME280;6810;63.824;20.288;2023-11-21T15:09:36;103048.44;;;-8.83;74.09
13476;BME280;6810;63.824;20.288;2023-11-21T15:12:23;103051.72;;;-8.85;73.62
13476;BME280;6810;63.824;20.288;2023-11-21T15:15:11;103052.47;;;-8.88;74.14
13476;BME280;6810;63.824;20.288;2023-11-21T15:17:58;103046.94;;;-8.94;74.04
13476;BME280;6810;63.824;20.288;2023-11-21T15:20:45;103056.47;;;-8.93;73.83
13476;BME280;6810;63.824;20.288;2023-11-21T15:23:32;103059.69;;;-8.97;73.47
13476;BME280;6810;63.824;20.288;2023-11-21T15:26:19;103062.88;;;-9.01;74.30
13476;BME280;6810;63.824;20.288;2023-11-21T15:29:06;103066.00;;;-9.07;73.73
13476;BME280;6810;63.824;20.288;2023-11-21T15:31:53;103029.31;;;-9.30;73.60
13476;BME280;6810;63.824;20.288;2023-11-21T15:34:40;103077.94;;;-9.09;73.82
13476;BME280;6810;63.824;20.288;2023-11-21T15:37:28;103068.66;;;-9.20;73.79
13476;BME280;6810;63.824;20.288;2023-11-21T15:40:16;103074.09;;;-9.15;74.11
13476;BME280;6810;63.824;20.288;2023-11-21T15:43:03;103066.16;;;-9.18;73.57
13476;BME280;6810;63.824;20.288;2023-11-21T15:45:50;103065.22;;;-9.20;73.86
13476;BME280;6810;63.824;20.288;2023-11-21T15:48:37;103072.78;;;-9.23;73.68
13476;BME280;6810;63.824;20.288;2023-11-21T15:51:24;103083.00;;;-9.25;74.32
13476;BME280;6810;63.824;20.288;2023-11-21T15:54:10;103075.88;;;-9.29;73.89
13476;BME280;6810;63.824;20.288;2023-11-21T15:56:57;103080.94;;;-9.30;74.27
13476;BME280;6810;63.824;20.288;2023-11-21T15:59:44;103067.75;;;-9.35;74.08
13476;BME280;6810;63.824;20.288;2023-11-21T16:02:33;103063.22;;;-9.39;73.31
13476;BME280;6810;63.824;20.288;2023-11-21T16:05:20;103071.66;;;-9.41;74.23
13476;BME280;6810;63.824;20.288;2023-11-21T16:08:07;103080.94;;;-9.45;73.48
13476;BME280;6810;63.824;20.288;2023-11-21T16:10:54;103002.97;;;-9.96;73.50
13476;BME280;6810;63.824;20.288;2023-11-21T16:13:43;103081.34;;;-9.52;73.31
13476;BME280;6810;63.824;20.288;2023-11-21T16:16:30;103073.97;;;-9.60;73.79
13476;BME280;6810;63.824;20.288;2023-11-21T16:19:17;103090.63;;;-9.55;73.57
13476;BME280;6810;63.824;20.288;2023-11-21T16:22:05;103075.38;;;-9.65;73.94
13476;BME280;6810;63.824;20.288;2023-11-21T16:24:52;103051.94;;;-9.83;73.55
13476;BME280;6810;63.824;20.288;2023-11-21T16:27:40;103086.69;;;-9.63;74.06
13476;BME280;6810;63.824;20.288;2023-11-21T16:30:27;103079.16;;;-9.73;73.30
13476;BME280;6810;63.824;20.288;2023-11-21T16:33:14;103081.81;;;-9.72;74.06
13476;BME280;6810;63.824;20.288;2023-11-21T16:36:01;103082.72;;;-9.71;74.20
13476;BME280;6810;63.824;20.288;2023-11-21T16:38:48;103063.94;;;-9.83;74.17
13476;BME280;6810;63.824;20.288;2023-11-21T16:41:35;102924.56;;;-10.56;73.67
13476;BME280;6810;63.824;20.288;2023-11-21T16:44:22;103073.63;;;-9.79;73.67
13476;BME280;6810;63.824;20.288;2023-11-21T16:47:09;103075.25;;;-9.81;73.53
13476;BME280;6810;63.824;20.288;2023-11-21T16:49:59;103067.22;;;-9.86;73.22
13476;BME280;6810;63.824;20.288;2023-11-21T16:52:46;103073.25;;;-9.85;73.92
13476;BME280;6810;63.824;20.288;2023-11-21T16:55:33;103073.06;;;-9.88;73.32
13476;BME280;6810;63.824;20.288;2023-11-21T16:58:20;103076.47;;;-9.89;73.64
13476;BME280;6810;63.824;20.288;2023-11-21T17:01:07;103027.03;;;-10.24;73.34
13476;BME280;6810;63.824;20.288;2023-11-21T17:03:58;103083.81;;;-9.95;73.16
13476;BME280;6810;63.824;20.288;2023-11-21T17:06:45;103076.75;;;-9.98;73.14
13476;BME280;6810;63.824;20.288;2023-11-21T17:09:33;103083.44;;;-10.01;73.14
13476;BME280;6810;63.824;20.288;2023-11-21T17:12:20;103090.56;;;-9.97;74.16
13476;BME280;6810;63.824;20.288;2023-11-21T17:15:07;103091.19;;;-10.01;73.09
13476;BME280;6810;63.824;20.288;2023-11-21T17:17:54;103065.53;;;-10.13;74.06
13476;BME280;6810;63.824;20.288;2023-11-21T17:20:42;103050.41;;;-10.21;73.82
13476;BME280;6810;63.824;20.288;2023-11-21T17:23:29;103083.09;;;-10.07;73.91
13476;BME280;6810;63.824;20.288;2023-11-21T17:26:17;103079.53;;;-10.09;73.32
13476;BME280;6810;63.824;20.288;2023-11-21T17:29:04;103087.16;;;-10.11;73.10
13476;BME280;6810;63.824;20.288;2023-11-21T17:31:51;103084.50;;;-10.12;74.03
13476;BME280;6810;63.824;20.288;2023-11-21T17:34:41;103082.63;;;-10.15;74.06
13476;BME280;6810;63.824;20.288;2023-11-21T17:37:28;103081.63;;;-10.17;73.52
13476;BME280;6810;63.824;20.288;2023-11-21T17:40:16;103060.72;;;-10.34;73.72
13476;BME280;6810;63.824;20.288;2023-11-21T17:43:03;103071.84;;;-10.22;73.10
13476;BME280;6810;63.824;20.288;2023-11-21T17:45:50;103061.13;;;-10.28;73.53
13476;BME280;6810;63.824;20.288;2023-11-21T17:48:37;103069.84;;;-10.26;73.94
13476;BME280;6810;63.824;20.288;2023-11-21T17:51:24;103069.66;;;-10.29;72.96
13476;BME280;6810;63.824;20.288;2023-11-21T17:54:11;103078.09;;;-10.32;73.00
13476;BME280;6810;63.824;20.288;2023-11-21T17:56:58;103078.00;;;-10.33;73.29
13476;BME280;6810;63.824;20.288;2023-11-21T17:59:45;103072.66;;;-10.36;73.17
13476;BME280;6810;63.824;20.288;2023-11-21T18:02:35;103075.03;;;-10.39;73.25
13476;BME280;6810;63.824;20.288;2023-11-21T18:05:22;103074.03;;;-10.41;72.96
13476;BME280;6810;63.824;20.288;2023-11-21T18:08:09;103076.50;;;-10.43;73.48
13476;BME280;6810;63.824;20.288;2023-11-21T18:10:56;103074.56;;;-10.47;73.60
13476;BME280;6810;63.824;20.288;2023-11-21T18:13:43;102992.19;;;-10.99;73.33
13476;BME280;6810;63.824;20.288;2023-11-21T18:16:30;103059.78;;;-10.62;73.59
13476;BME280;6810;63.824;20.288;2023-11-21T18:19:18;103073.16;;;-10.55;73.51
13476;BME280;6810;63.824;20.288;2023-11-21T18:22:05;103074.75;;;-10.57;72.95
13476;BME280;6810;63.824;20.288;2023-11-21T18:24:52;103072.69;;;-10.62;72.87
13476;BME280;6810;63.824;20.288;2023-11-21T18:27:42;103085.56;;;-10.62;73.75
13476;BME280;6810;63.824;20.288;2023-11-21T18:30:29;103076.44;;;-10.70;72.79
13476;BME280;6810;63.824;20.288;2023-11-21T18:33:16;103080.88;;;-10.68;72.86
13476;BME280;6810;63.824;20.288;2023-11-21T18:36:06;103027.31;;;-11.00;73.49
13476;BME280;6810;63.824;20.288;2023-11-21T18:38:53;103055.75;;;-10.85;73.77
13476;BME280;6810;63.824;20.288;2023-11-21T18:41:41;103059.50;;;-10.80;73.03
13476;BME280;6810;63.824;20.288;2023-11-21T18:44:28;103072.47;;;-10.78;73.04
13476;BME280;6810;63.824;20.288;2023-11-21T18:47:25;103059.38;;;-10.81;72.98
13476;BME280;6810;63.824;20.288;2023-11-21T18:50:13;103061.00;;;-10.83;73.07
13476;BME280;6810;63.824;20.288;2023-11-21T18:53:00;103005.94;;;-11.12;73.19
13476;BME280;6810;63.824;20.288;2023-11-21T18:55:48;103047.72;;;-10.89;72.71
13476;BME280;6810;63.824;20.288;2023-11-21T18:58:35;103031.47;;;-11.02;73.55
13476;BME280;6810;63.824;20.288;2023-11-21T19:01:25;102950.31;;;-11.49;72.76
13476;BME280;6810;63.824;20.288;2023-11-21T19:04:12;103036.72;;;-11.00;73.31
13476;BME280;6810;63.824;20.288;2023-11-21T19:06:59;103029.69;;;-11.03;73.01
13476;BME280;6810;63.824;20.288;2023-11-21T19:09:49;103030.19;;;-11.08;72.96
13476;BME280;6810;63.824;20.288;2023-11-21T19:12:36;103012.34;;;-11.18;73.42
13476;BME280;6810;63.824;20.288;2023-11-21T19:15:23;103033.44;;;-11.11;73.54
13476;BME280;6810;63.824;20.288;2023-11-21T19:18:10;103021.78;;;-11.19;72.68
13476;BME280;6810;63.824;20.288;2023-11-21T19:20:57;103033.94;;;-11.16;72.75
13476;BME280;6810;63.824;20.288;2023-11-21T19:23:46;103038.09;;;-11.18;73.30
13476;BME280;6810;63.824;20.288;2023-11-21T19:26:33;103054.22;;;-11.21;73.55
13476;BME280;6810;63.824;20.288;2023-11-21T19:29:20;103037.69;;;-11.24;72.66
13476;BME280;6810;63.824;20.288;2023-11-21T19:32:07;103041.16;;;-11.24;72.71
13476;BME280;6810;63.824;20.288;2023-11-21T19:34:54;103034.44;;;-11.22;73.11
13476;BME280;6810;63.824;20.288;2023-11-21T19:37:41;103030.28;;;-11.20;73.42
13476;BME280;6810;63.824;20.288;2023-11-21T19:40:28;103027.78;;;-11.18;72.85
13476;BME280;6810;63.824;20.288;2023-11-21T19:43:15;102977.41;;;-11.41;73.32
13476;BME280;6810;63.824;20.288;2023-11-21T19:46:02;103016.13;;;-11.13;73.50
13476;BME280;6810;63.824;20.288;2023-11-21T19:48:49;103020.56;;;-11.11;73.45
13476;BME280;6810;63.824;20.288;2023-11-21T19:51:36;103013.06;;;-11.08;73.14
13476;BME280;6810;63.824;20.288;2023-11-21T19:54:23;103014.97;;;-11.05;72.70
13476;BME280;6810;63.824;20.288;2023-11-21T19:57:10;103005.63;;;-11.03;73.29
13476;BME280;6810;63.824;20.288;2023-11-21T19:59:57;103009.31;;;-11.00;72.94
13476;BME280;6810;63.824;20.288;2023-11-21T20:02:44;102999.19;;;-10.97;72.84
13476;BME280;6810;63.824;20.288;2023-11-21T20:05:31;102992.28;;;-10.98;73.23
13476;BME280;6810;63.824;20.288;2023-11-21T20:08:18;102996.16;;;-10.91;72.95
13476;BME280;6810;63.824;20.288;2023-11-21T20:11:05;102948.13;;;-11.17;72.95
13476;BME280;6810;63.824;20.288;2023-11-21T20:13:52;102942.03;;;-11.19;73.74
13476;BME280;6810;63.824;20.288;2023-11-21T20:16:39;103000.97;;;-10.82;72.73
13476;BME280;6810;63.824;20.288;2023-11-21T20:19:30;103006.41;;;-10.78;73.71
13476;BME280;6810;63.824;20.288;2023-11-21T20:22:17;102993.75;;;-10.75;73.15
13476;BME280;6810;63.824;20.288;2023-11-21T20:25:04;102980.78;;;-10.76;73.59
13476;BME280;6810;63.824;20.288;2023-11-21T20:27:51;102985.31;;;-10.72;72.56
13476;BME280;6810;63.824;20.288;2023-11-21T20:30:39;102996.09;;;-10.65;72.67
13476;BME280;6810;63.824;20.288;2023-11-21T20:33:26;102996.19;;;-10.63;72.72
13476;BME280;6810;63.824;20.288;2023-11-21T20:36:14;102952.44;;;-10.76;73.15
13476;BME280;6810;63.824;20.288;2023-11-21T20:39:01;102976.75;;;-10.58;73.18
13476;BME280;6810;63.824;20.288;2023-11-21T20:41:48;102922.84;;;-10.83;72.55
13476;BME280;6810;63.824;20.288;2023-11-21T20:44:34;102971.13;;;-10.53;73.14
13476;BME280;6810;63.824;20.288;2023-11-21T20:47:22;102958.34;;;-10.51;72.70
13476;BME280;6810;63.824;20.288;2023-11-21T20:50:09;102951.28;;;-10.54;72.62
13476;BME280;6810;63.824;20.288;2023-11-21T20:52:56;102959.50;;;-10.46;72.67
13476;BME280;6810;63.824;20.288;2023-11-21T20:55:43;102943.34;;;-10.44;73.25
13476;BME280;6810;63.824;20.288;2023-11-21T20:58:31;102948.69;;;-10.41;72.65
13476;BME280;6810;63.824;20.288;2023-11-21T21:01:18;102936.97;;;-10.36;72.67
13476;BME280;6810;63.824;20.288;2023-11-21T21:04:05;102923.22;;;-10.36;72.67
13476;BME280;6810;63.824;20.288;2023-11-21T21:06:54;102920.19;;;-10.29;72.68
13476;BME280;6810;63.824;20.288;2023-11-21T21:09:42;102918.69;;;-10.26;73.66
13476;BME280;6810;63.824;20.288;2023-11-21T21:12:31;102911.97;;;-10.24;73.58
13476;BME280;6810;63.824;20.288;2023-11-21T21:15:18;102914.09;;;-10.17;73.53
13476;BME280;6810;63.824;20.288;2023-11-21T21:18:06;102903.06;;;-10.14;72.86
13476;BME280;6810;63.824;20.288;2023-11-21T21:20:53;102897.50;;;-10.07;73.09
13476;BME280;6810;63.824;20.288;2023-11-21T21:23:40;102893.44;;;-10.02;73.06
13476;BME280;6810;63.824;20.288;2023-11-21T21:26:28;102893.72;;;-9.98;73.30
13476;BME280;6810;63.824;20.288;2023-11-21T21:29:14;102882.88;;;-9.92;73.78
13476;BME280;6810;63.824;20.288;2023-11-21T21:32:01;102881.28;;;-9.90;73.00
13476;BME280;6810;63.824;20.288;2023-11-21T21:34:50;102839.63;;;-10.12;73.45
13476;BME280;6810;63.824;20.288;2023-11-21T21:37:38;102886.34;;;-9.77;73.83
13476;BME280;6810;63.824;20.288;2023-11-21T21:40:26;102888.38;;;-9.72;73.46
13476;BME280;6810;63.824;20.288;2023-11-21T21:43:13;102882.69;;;-9.66;73.71
13476;BME280;6810;63.824;20.288;2023-11-21T21:46:00;102881.28;;;-9.61;73.87
13476;BME280;6810;63.824;20.288;2023-11-21T21:48:47;102878.16;;;-9.56;73.09
13476;BME280;6810;63.824;20.288;2023-11-21T21:51:34;102867.19;;;-9.52;73.58
13476;BME280;6810;63.824;20.288;2023-11-21T21:54:21;102864.88;;;-9.47;72.90
13476;BME280;6810;63.824;20.288;2023-11-21T21:57:08;102859.19;;;-9.42;73.81
13476;BME280;6810;63.824;20.288;2023-11-21T21:59:55;102848.94;;;-9.40;73.51
13476;BME280;6810;63.824;20.288;2023-11-21T22:02:42;102846.44;;;-9.39;72.83
13476;BME280;6810;63.824;20.288;2023-11-21T22:05:29;102853.47;;;-9.36;73.52
13476;BME280;6810;63.824;20.288;2023-11-21T22:08:16;102850.06;;;-9.35;73.67
13476;BME280;6810;63.824;20.288;2023-11-21T22:11:03;102849.19;;;-9.36;73.03
13476;BME280;6810;63.824;20.288;2023-11-21T22:13:50;102850.88;;;-9.36;73.02
13476;BME280;6810;63.824;20.288;2023-11-21T22:16:37;102839.75;;;-9.35;73.80
13476;BME280;6810;63.824;20.288;2023-11-21T22:19:24;102834.56;;;-9.35;72.87
13476;BME280;6810;63.824;20.288;2023-11-21T22:22:12;102835.66;;;-9.32;73.61
13476;BME280;6810;63.824;20.288;2023-11-21T22:24:59;102828.81;;;-9.31;73.39
13476;BME280;6810;63.824;20.288;2023-11-21T22:27:45;102828.00;;;-9.30;73.50
13476;BME280;6810;63.824;20.288;2023-11-21T22:30:32;102821.22;;;-9.28;72.93
13476;BME280;6810;63.824;20.288;2023-11-21T22:33:20;102815.31;;;-9.26;72.96
13476;BME280;6810;63.824;20.288;2023-11-21T22:36:12;102794.75;;;-9.24;73.87
13476;BME280;6810;63.824;20.288;2023-11-21T22:38:59;102790.59;;;-9.22;73.71
13476;BME280;6810;63.824;20.288;2023-11-21T22:41:46;102780.34;;;-9.21;73.08
13476;BME280;6810;63.824;20.288;2023-11-21T22:44:33;102770.09;;;-9.19;73.96
13476;BME280;6810;63.824;20.288;2023-11-21T22:47:20;102765.09;;;-9.16;73.73
13476;BME280;6810;63.824;20.288;2023-11-21T22:50:09;102747.75;;;-9.19;74.07
13476;BME280;6810;63.824;20.288;2023-11-21T22:52:57;102747.03;;;-9.16;73.61
13476;BME280;6810;63.824;20.288;2023-11-21T22:55:44;102740.41;;;-9.11;73.46
13476;BME280;6810;63.824;20.288;2023-11-21T22:58:31;102731.94;;;-9.09;73.32
13476;BME280;6810;63.824;20.288;2023-11-21T23:01:18;102738.94;;;-9.06;74.01
13476;BME280;6810;63.824;20.288;2023-11-21T23:04:05;102722.97;;;-9.15;73.86
13476;BME280;6810;63.824;20.288;2023-11-21T23:06:52;102729.69;;;-9.02;73.77
13476;BME280;6810;63.824;20.288;2023-11-21T23:09:40;102730.72;;;-8.99;73.46
13476;BME280;6810;63.824;20.288;2023-11-21T23:12:27;102722.81;;;-9.02;73.04
13476;BME280;6810;63.824;20.288;2023-11-21T23:15:14;102715.06;;;-9.02;73.71
13476;BME280;6810;63.824;20.288;2023-11-21T23:18:01;102705.69;;;-9.00;73.16
13476;BME280;6810;63.824;20.288;2023-11-21T23:20:48;102717.47;;;-8.89;73.39
13476;BME280;6810;63.824;20.288;2023-11-21T23:23:35;102710.63;;;-8.88;73.28
13476;BME280;6810;63.824;20.288;2023-11-21T23:26:22;102709.88;;;-8.86;73.15
13476;BME280;6810;63.824;20.288;2023-11-21T23:29:09;102661.84;;;-9.16;73.44
13476;BME280;6810;63.824;20.288;2023-11-21T23:31:56;102720.38;;;-8.83;73.07
13476;BME280;6810;63.824;20.288;2023-11-21T23:34:46;102678.09;;;-9.01;73.95
13476;BME280;6810;63.824;20.288;2023-11-21T23:37:33;102707.63;;;-8.80;73.16
13476;BME280;6810;63.824;20.288;2023-11-21T23:40:20;102696.41;;;-8.80;73.48
13476;BME280;6810;63.824;20.288;2023-11-21T23:43:07;102690.44;;;-8.79;73.14
13476;BME280;6810;63.824;20.288;2023-11-21T23:45:54;102689.59;;;-8.78;74.02
13476;BME280;6810;63.824;20.288;2023-11-21T23:48:41;102667.03;;;-8.82;73.80